Flight Track Log - Related Links

Times and Time Zones

All times are in EDT time to prevent confusion due to time zone crossing. See the EJA929 flight status page for this flight to view local times or setup timezone preferences in your user account.

Time Position Orientation Groundspeed Altitude Reporting Facility
EDT Latitude Longitude Course Direction KTS MPH feet Rate Location/Type
Thu 12:18:48 29.6317 -95.2247 92° East 233 268 3,000  Level Houston Center
Thu 12:19:50 29.7064 -95.2156 North 282 325 5,100 2,293 Climbing Houston Center
Thu 12:20:51 29.7769 -95.2528 335° Northwest 279 321 7,700 2,656 Climbing Houston Center
Thu 12:21:52 29.8500 -95.2919 335° Northwest 289 333 10,500 2,053 Climbing Houston Center
Thu 12:23:23 29.9794 -95.2467 17° North 335 386 12,900 1,529 Climbing Houston Center
Thu 12:24:25 30.0722 -95.1989 24° Northeast 358 412 14,400 1,452 Climbing Houston Center
Thu 12:25:27 30.1683 -95.1500 24° Northeast 373 429 15,900 1,355 Climbing Houston Center
Thu 12:26:29 30.2656 -95.1003 24° Northeast 379 436 17,200 1,296 Climbing Houston Center
Thu 12:27:32 30.3664 -95.0511 23° Northeast 389 448 18,600 1,440 Climbing Houston Center
Thu 12:28:34 30.4786 -94.9817 28° Northeast 393 452 20,200 1,452 Climbing Houston Center
Thu 12:29:36 30.5750 -94.9186 29° Northeast 396 456 21,600 1,452 Climbing Houston Center
Thu 12:30:38 30.6733 -94.8567 28° Northeast 401 461 23,200 1,500 Climbing Houston Center
Thu 12:31:40 30.7717 -94.7936 29° Northeast 403 464 24,700 1,452 Climbing Houston Center
Thu 12:32:42 30.8706 -94.7303 29° Northeast 405 466 26,200 1,548 Climbing Houston Center
Thu 12:33:44 30.9878 -94.6542 29° Northeast 404 465 27,900 1,548 Climbing Houston Center
Thu 12:34:46 31.0881 -94.5892 29° Northeast 413 475 29,400 1,452 Climbing Houston Center
Thu 12:35:48 31.1889 -94.5239 29° Northeast 422 486 30,900 1,452 Climbing Houston Center
Thu 12:36:50 31.2908 -94.4594 28° Northeast 424 488 32,400 1,597 Climbing Houston Center
Thu 12:37:52 31.4144 -94.3814 28° Northeast 425 489 34,200 1,584 Climbing Houston Center
Thu 12:38:55 31.5186 -94.3142 29° Northeast 428 493 35,700 1,440 Climbing Houston Center
Thu 12:39:57 31.6233 -94.2475 28° Northeast 429 494 37,200 1,355 Climbing Houston Center
Thu 12:40:59 31.7289 -94.1792 29° Northeast 432 497 38,500 871 Climbing Houston Center
Thu 12:42:01 31.8456 -94.1014 30° Northeast 441 507 39,000 242 Climbing Houston Center
Thu 12:43:03 31.9622 -94.0256 29° Northeast 472 543 39,000 290 Level Houston Center
Thu 12:44:05 32.0906 -93.9356 31° Northeast 482 555 39,600 484 Climbing Houston Center
Thu 12:45:07 32.1517 -93.7975 62° Northeast 478 550 40,000 194 Climbing Houston Center
Thu 12:46:09 32.1892 -93.6422 74° East 491 565 40,000 85 Level Houston Center
Thu 12:47:29 32.2419 -93.4197 74° East 474 545 40,200 386 Climbing Fort Center
Thu 12:48:29 32.2808 -93.2656 73° East 480 552 40,900 400 Climbing Fort Center
Thu 12:49:29 32.3153 -93.1142 75° East 480 552 41,000 150 Climbing Fort Center
Thu 12:50:29 32.3525 -92.9822 72° East 475 547 41,200 600 Climbing Fort Center
Thu 12:51:29 32.3889 -92.8303 74° East 475 547 42,200 900 Climbing Fort Center
Thu 12:52:29 32.4306 -92.6583 74° East 484 557 43,000 400 Climbing Fort Center
Thu 12:53:29 32.4686 -92.5086 73° East 484 557 43,000  Level Fort Center
Thu 12:54:29 32.4989 -92.3764 75° East 479 551 43,000  Level Fort Center
Thu 12:55:29 32.5361 -92.2192 74° East 479 551 43,000  Level Fort Center
Thu 12:57:14 32.6058 -91.9306 74° East 504 580 43,000  Level Memphis Center
Thu 12:58:14 32.6389 -91.7708 76° East 494 568 43,000  Level Memphis Center
Thu 12:59:14 32.6781 -91.6183 73° East 488 562 43,000  Level Memphis Center
Thu 13:00:14 32.7131 -91.4586 75° East 488 562 43,000  Level Memphis Center
Thu 13:01:14 32.7581 -91.3033 71° East 488 562 43,000  Level Memphis Center
Thu 13:02:14 32.8175 -91.1558 64° Northeast 493 567 43,000  Level Memphis Center
Thu 13:03:14 32.8789 -91.0078 64° Northeast 493 567 43,000  Level Memphis Center
Thu 13:04:14 32.9403 -90.8597 64° Northeast 493 567 43,000  Level Memphis Center
Thu 13:05:14 32.9950 -90.7089 67° East 493 567 43,000  Level Memphis Center
Thu 13:06:14 33.0456 -90.5653 67° East 505 581 43,000  Level Memphis Center
Thu 13:07:14 33.0956 -90.4092 69° East 500 575 43,000  Level Memphis Center
Thu 13:08:14 33.1458 -90.2506 69° East 500 575 43,000 -350 Level Memphis Center
Thu 13:09:14 33.1978 -90.0742 71° East 505 581 42,300 -1,000 Descending Memphis Center
Thu 13:10:14 33.2472 -89.9100 70° East 510 587 41,000 -1,300 Descending Memphis Center
Thu 13:11:14 33.2925 -89.7433 72° East 521 600 39,700 -1,600 Descending Memphis Center
Thu 13:12:14 33.3333 -89.5717 74° East 526 605 37,800 -1,950 Descending Memphis Center
Thu 13:13:14 33.3633 -89.3972 78° East 526 605 35,800 -2,000 Descending Memphis Center
Thu 13:14:14 33.4142 -89.2322 70° East 531 611 33,800 -2,050 Descending Memphis Center
Thu 13:15:14 33.4772 -89.0672 65° Northeast 536 617 31,700 -1,900 Descending Memphis Center
Thu 13:16:14 33.5611 -88.9164 56° Northeast 541 623 30,000 -1,190 Descending Memphis Center
Thu 13:17:10 33.6386 -88.7753 57° Northeast 553 636 29,400 -1,200 Descending Memphis Center
Thu 13:18:14 33.6844 -88.6022 72° East 537 618 27,600 -1,887 Descending Memphis Center
Thu 13:20:24 33.6844 -88.2053 90° East 519 597 23,300 -1,833 Descending Memphis Center
Thu 13:21:14 33.6803 -88.0881 92° East 500 575 22,100 -1,582 Descending Memphis Center
Thu 13:22:14 33.6814 -87.9308 89° East 479 551 20,400 -1,700 Descending Memphis Center
Thu 13:23:14 33.6806 -87.7811 90° East 474 545 18,700 -1,700 Descending Memphis Center
Thu 13:24:14 33.6772 -87.6314 91° East 453 521 17,000 -1,850 Descending Memphis Center
Thu 13:25:14 33.6761 -87.4867 90° East 438 504 15,000 -2,000 Descending Memphis Center
Thu 13:26:14 33.6747 -87.3444 91° East 433 498 13,000 -1,932 Descending Memphis Center
Thu 13:27:12 33.6739 -87.2189 90° East 411 473 11,200 -1,627 Descending Atlanta Center
Thu 13:28:12 33.6725 -87.1067 91° East 368 423 9,800 -1,500 Descending Atlanta Center
Thu 13:29:12 33.6728 -87.0092 90° East 326 375 8,200 -1,750 Descending Atlanta Center
Thu 13:30:12 33.6708 -86.9142 91° East 295 339 6,300 -1,750 Descending Atlanta Center
Thu 13:31:12 33.6772 -86.8247 85° East 276 318 4,700 -1,456 Descending Atlanta Center
Thu 13:32:28 33.6942 -86.7153 79° East 254 292 3,000 -850 Descending Atlanta Center
Thu 13:33:12 33.7017 -86.6631 80° East 247 284 3,000  Level Atlanta Center
Thu 13:34:12 33.6564 -86.6242 144° Southeast 197 227 3,000 -409 Level Atlanta Center
Thu 13:35:24 33.6031 -86.6875 225° Southwest 188 216 2,100 -857 Descending Atlanta Center
Thu 13:36:25 33.5814 -86.7267 236° Southwest 128 147 1,100 -984 Descending Atlanta Center
Thu 13:38:00 33.5639 -86.7523 140° Southeast  Level Estimated
Thu 13:45:00 33.5639 -86.7523 140° Southeast  Level Estimated

Login

Don't have an account? Register now (free) for customized features, flight alerts, and more!